createdAt,value
2023-04-02T00:01:00.575Z,102289.22
2023-04-02T00:02:20.939Z,102286.53
2023-04-02T00:03:22.874Z,102298.38
2023-04-02T00:04:26.492Z,102291.66
2023-04-02T00:05:34.855Z,102293.63
2023-04-02T00:06:44.794Z,102299.94
2023-04-02T00:07:52.897Z,102300.91
2023-04-02T00:08:58.929Z,102289.97
2023-04-02T00:10:00.787Z,102295.25
2023-04-02T00:11:02.791Z,102301.53
2023-04-02T00:12:20.275Z,102308.38
2023-04-02T00:13:29.633Z,102315.66
2023-04-02T00:14:36.659Z,102313.94
2023-04-02T00:15:41.236Z,102317.66
2023-04-02T00:16:43.743Z,102316.91
2023-04-02T00:17:45.729Z,102326.88
2023-04-02T00:18:52.488Z,102320.88
2023-04-02T00:20:00.527Z,102318.22
2023-04-02T00:21:17.134Z,102330.63
2023-04-02T00:22:21.541Z,102335.97
2023-04-02T00:23:24.217Z,102335.22
2023-04-02T00:24:26.064Z,102330.91
2023-04-02T00:25:28.786Z,102346.19
2023-04-02T00:26:37.684Z,102340.97
2023-04-02T00:27:40.260Z,102324.47
2023-04-02T00:28:42.246Z,102336.97
2023-04-02T00:29:55.744Z,102342.97
2023-04-02T00:31:00.372Z,102343.84
2023-04-02T00:32:02.422Z,102347.44
2023-04-02T00:33:04.345Z,102324.97
2023-04-02T00:34:11.568Z,102345.00
2023-04-02T00:35:23.261Z,102353.88
2023-04-02T00:36:30.144Z,102352.16
2023-04-02T00:37:39.114Z,102346.91
2023-04-02T00:38:43.963Z,102341.53
2023-04-02T00:39:46.438Z,102353.22
2023-04-02T00:40:51.243Z,102355.13
2023-04-02T00:42:07.729Z,102362.38
2023-04-02T00:43:16.541Z,102362.19
2023-04-02T00:44:21.809Z,102361.34
2023-04-02T00:45:29.203Z,102367.75
2023-04-02T00:46:47.356Z,102369.66
2023-04-02T00:47:49.585Z,102368.50
2023-04-02T00:49:09.846Z,102372.25
2023-04-02T00:50:11.645Z,102343.28
2023-04-02T00:51:35.420Z,102383.13
2023-04-02T00:52:38.673Z,102390.19
2023-04-02T00:53:42.099Z,102390.38
2023-04-02T00:54:49.866Z,102377.72
2023-04-02T00:55:52.321Z,102393.34
2023-04-02T00:56:58.235Z,102389.25
2023-04-02T00:58:01.950Z,102389.38
2023-04-02T00:59:04.557Z,102397.19
2023-04-02T01:00:30.063Z,102397.38
2023-04-02T01:01:37.102Z,102405.00
2023-04-02T01:02:41.063Z,102407.00
2023-04-02T01:03:44.396Z,102402.94
2023-04-02T01:05:15.108Z,102418.34
2023-04-02T01:06:18.869Z,102407.09
2023-04-02T01:07:30.694Z,102404.84
2023-04-02T01:08:44.523Z,102414.44
2023-04-02T01:10:07.583Z,102422.19
2023-04-02T01:11:24.534Z,102425.06
2023-04-02T01:12:58.295Z,102434.59
2023-04-02T01:14:37.537Z,102427.53
2023-04-02T01:15:51.194Z,102426.56
2023-04-02T01:17:02.744Z,102420.66
2023-04-02T01:18:31.467Z,102433.06
2023-04-02T01:19:42.473Z,102440.31
2023-04-02T01:21:03.397Z,102434.31
2023-04-02T01:22:22.801Z,102440.53
2023-04-02T01:23:28.797Z,102445.19
2023-04-02T01:24:33.839Z,102437.50
2023-04-02T01:25:42.784Z,102442.03
2023-04-02T01:27:02.315Z,102446.34
2023-04-02T01:28:10.754Z,102446.44
2023-04-02T01:29:14.308Z,102458.16
2023-04-02T01:30:18.368Z,102465.44
2023-04-02T01:31:22.597Z,102455.97
2023-04-02T01:32:27.684Z,102452.34
2023-04-02T01:33:33.965Z,102455.97
2023-04-02T01:34:36.705Z,102458.56
2023-04-02T01:35:44.751Z,102462.38
2023-04-02T01:36:56.337Z,102445.88
2023-04-02T01:38:24.089Z,102472.47
2023-04-02T01:39:50.507Z,102469.06
2023-04-02T01:41:02.798Z,102479.63
2023-04-02T01:42:26.324Z,102477.72
2023-04-02T01:43:41.440Z,102476.09
2023-04-02T01:44:48.498Z,102486.97
2023-04-02T01:45:50.773Z,102474.88
2023-04-02T01:46:52.972Z,102483.75
2023-04-02T01:47:55.596Z,102495.47
2023-04-02T01:49:01.440Z,102490.31
2023-04-02T01:50:23.769Z,102486.50
2023-04-02T01:51:34.110Z,102488.31
2023-04-02T01:52:42.809Z,102487.44
2023-04-02T01:53:46.685Z,102495.47
2023-04-02T01:54:51.633Z,102492.97
2023-04-02T01:55:57.306Z,102482.72
2023-04-02T01:56:59.203Z,102499.38
2023-04-02T01:58:02.144Z,102494.31
2023-04-02T01:59:06.015Z,102501.25
2023-04-02T02:00:15.367Z,102503.25
2023-04-02T02:01:27.710Z,102496.38
2023-04-02T02:02:29.848Z,102506.53
2023-04-02T02:03:32.420Z,102515.56
2023-04-02T02:04:35.126Z,102515.69
2023-04-02T02:05:37.589Z,102501.91
2023-04-02T02:06:40.093Z,102525.56
2023-04-02T02:07:42.422Z,102521.19
2023-04-02T02:08:54.905Z,102519.34
2023-04-02T02:09:57.068Z,102529.94
2023-04-02T02:10:59.663Z,102525.63
2023-04-02T02:12:04.062Z,102519.84
2023-04-02T02:13:06.890Z,102526.50
2023-04-02T02:14:26.846Z,102533.41
2023-04-02T02:15:28.956Z,102529.19
2023-04-02T02:16:32.066Z,102534.53
2023-04-02T02:17:34.962Z,102539.94
2023-04-02T02:18:37.150Z,102539.19
2023-04-02T02:19:50.317Z,102539.28
2023-04-02T02:20:53.226Z,102542.78
2023-04-02T02:22:04.281Z,102542.78
2023-04-02T02:23:07.213Z,102548.91
2023-04-02T02:24:31.793Z,102547.75
2023-04-02T02:25:36.329Z,102535.84
2023-04-02T02:26:40.005Z,102548.81
2023-04-02T02:28:13.980Z,102548.47
2023-04-02T02:29:19.382Z,102548.63
2023-04-02T02:30:48.841Z,102545.66
2023-04-02T02:31:55.159Z,102546.53
2023-04-02T02:33:03.700Z,102563.97
2023-04-02T02:34:19.316Z,102570.19
2023-04-02T02:35:31.624Z,102559.88
2023-04-02T02:36:52.862Z,102566.06
2023-04-02T02:38:02.872Z,102579.13
2023-04-02T02:39:31.964Z,102576.28
2023-04-02T02:40:43.669Z,102582.66
2023-04-02T02:41:50.300Z,102586.38
2023-04-02T02:42:58.068Z,102582.19
2023-04-02T02:44:06.900Z,102587.53
2023-04-02T02:45:18.317Z,102591.13
2023-04-02T02:46:25.740Z,102594.75
2023-04-02T02:47:31.526Z,102601.03
2023-04-02T02:48:39.427Z,102589.59
2023-04-02T02:49:45.134Z,102603.91
2023-04-02T02:50:48.572Z,102605.69
2023-04-02T02:52:00.551Z,102599.47
2023-04-02T02:53:20.598Z,102596.91
2023-04-02T02:54:23.237Z,102608.44
2023-04-02T02:55:29.578Z,102604.22
2023-04-02T02:56:52.805Z,102614.56
2023-04-02T02:58:06.872Z,102619.81
2023-04-02T02:59:17.198Z,102622.47
2023-04-02T03:00:19.985Z,102620.81
2023-04-02T03:01:22.874Z,102589.31
2023-04-02T03:02:28.984Z,102623.78
2023-04-02T03:03:34.605Z,102630.16
2023-04-02T03:04:38.873Z,102634.53
2023-04-02T03:06:02.157Z,102619.78
2023-04-02T03:07:06.195Z,102636.19
2023-04-02T03:08:22.141Z,102634.53
2023-04-02T03:09:33.434Z,102630.91
2023-04-02T03:10:44.299Z,102639.81
2023-04-02T03:12:06.666Z,102645.81
2023-04-02T03:13:14.780Z,102643.13
2023-04-02T03:14:37.207Z,102628.34
2023-04-02T03:15:47.834Z,102643.31
2023-04-02T03:16:58.702Z,102653.16
2023-04-02T03:18:07.464Z,102650.56
2023-04-02T03:19:18.124Z,102654.16
2023-04-02T03:20:32.580Z,102648.94
2023-04-02T03:22:19.520Z,102657.34
2023-04-02T03:23:35.295Z,102655.53
2023-04-02T03:24:45.758Z,102658.38
2023-04-02T03:25:56.330Z,102664.78
2023-04-02T03:27:21.364Z,102662.75
2023-04-02T03:28:28.942Z,102668.28
2023-04-02T03:29:34.599Z,102671.13
2023-04-02T03:30:46.273Z,102676.66
2023-04-02T03:31:59.586Z,102673.97
2023-04-02T03:33:11.612Z,102678.47
2023-04-02T03:34:32.925Z,102688.09
2023-04-02T03:35:46.644Z,102675.69
2023-04-02T03:37:00.338Z,102684.66
2023-04-02T03:38:16.079Z,102681.97
2023-04-02T03:39:27.230Z,102687.44
2023-04-02T03:40:35.336Z,102682.34
2023-04-02T03:41:49.285Z,102692.00
2023-04-02T03:43:02.242Z,102695.50
2023-04-02T03:44:15.375Z,102700.06
2023-04-02T03:45:22.723Z,102683.47
2023-04-02T03:46:24.869Z,102702.75
2023-04-02T03:47:43.738Z,102691.28
2023-04-02T03:48:52.524Z,102705.50
2023-04-02T03:50:11.761Z,102693.53
2023-04-02T03:51:42.728Z,102703.63
2023-04-02T03:52:45.113Z,102712.38
2023-04-02T03:53:49.644Z,102711.69
2023-04-02T03:54:53.802Z,102716.34
2023-04-02T03:55:57.517Z,102717.28
2023-04-02T03:57:00.286Z,102713.22
2023-04-02T03:58:19.285Z,102720.13
2023-04-02T03:59:39.691Z,102731.25
2023-04-02T04:01:00.538Z,102724.97
2023-04-02T04:02:39.928Z,102735.34
2023-04-02T04:03:47.118Z,102738.19
2023-04-02T04:04:50.993Z,102737.53
2023-04-02T04:06:15.819Z,102742.00
2023-04-02T04:07:28.711Z,102730.13
2023-04-02T04:08:42.744Z,102749.22
2023-04-02T04:09:47.000Z,102751.03
2023-04-02T04:10:59.057Z,102758.16
2023-04-02T04:12:23.596Z,102754.56
2023-04-02T04:13:35.400Z,102754.56
2023-04-02T04:14:44.841Z,102763.50
2023-04-02T04:16:02.886Z,102769.78
2023-04-02T04:17:24.950Z,102768.78
2023-04-02T04:18:35.057Z,102763.50
2023-04-02T04:19:45.612Z,102769.72
2023-04-02T04:20:58.662Z,102758.69
2023-04-02T04:22:15.253Z,102778.63
2023-04-02T04:23:30.246Z,102773.47
2023-04-02T04:24:39.317Z,102780.47
2023-04-02T04:25:42.066Z,102781.41
2023-04-02T04:27:36.051Z,102784.69
2023-04-02T04:29:05.799Z,102785.44
2023-04-02T04:30:22.961Z,102789.06
2023-04-02T04:31:34.146Z,102791.91
2023-04-02T04:32:50.209Z,102789.31
2023-04-02T04:34:05.288Z,102799.91
2023-04-02T04:35:25.120Z,102784.41
2023-04-02T04:36:32.162Z,102802.75
2023-04-02T04:37:45.120Z,102807.16
2023-04-02T04:38:55.633Z,102806.38
2023-04-02T04:40:07.601Z,102792.75
2023-04-02T04:41:22.684Z,102808.16
2023-04-02T04:42:31.108Z,102795.34
2023-04-02T04:43:51.113Z,102809.97
2023-04-02T04:45:07.781Z,102817.81
2023-04-02T04:46:14.881Z,102824.09
2023-04-02T04:47:21.382Z,102820.66
2023-04-02T04:48:36.514Z,102820.72
2023-04-02T04:49:39.200Z,102822.53
2023-04-02T04:51:01.411Z,102828.56
2023-04-02T04:52:14.337Z,102827.78
2023-04-02T04:53:21.824Z,102834.06
2023-04-02T04:54:28.470Z,102834.16
2023-04-02T04:55:39.691Z,102836.91
2023-04-02T04:56:50.379Z,102836.84
2023-04-02T04:57:57.898Z,102839.56
2023-04-02T04:58:59.819Z,102836.06
2023-04-02T05:00:13.050Z,102844.13
2023-04-02T05:01:37.858Z,102849.22
2023-04-02T05:02:57.407Z,102848.19
2023-04-02T05:04:24.498Z,102848.34
2023-04-02T05:05:37.894Z,102854.41
2023-04-02T05:07:00.964Z,102833.38
2023-04-02T05:08:30.285Z,102851.91
2023-04-02T05:09:53.870Z,102862.22
2023-04-02T05:11:01.309Z,102863.34
2023-04-02T05:12:35.239Z,102859.03
2023-04-02T05:13:54.296Z,102862.41
2023-04-02T05:15:12.756Z,102873.13
2023-04-02T05:16:23.596Z,102875.81
2023-04-02T05:17:36.275Z,102870.75
2023-04-02T05:18:41.130Z,102876.13
2023-04-02T05:19:56.967Z,102857.03
2023-04-02T05:21:44.139Z,102878.75
2023-04-02T05:22:53.431Z,102882.09
2023-04-02T05:24:03.832Z,102886.75
2023-04-02T05:25:24.976Z,102893.81
2023-04-02T05:26:41.956Z,102892.06
2023-04-02T05:27:52.859Z,102891.13
2023-04-02T05:29:03.323Z,102891.47
2023-04-02T05:30:18.170Z,102904.53
2023-04-02T05:31:40.906Z,102896.69
2023-04-02T05:32:48.437Z,102911.53
2023-04-02T05:33:50.835Z,102902.03
2023-04-02T05:34:57.048Z,102914.38
2023-04-02T05:36:01.545Z,102917.03
2023-04-02T05:37:09.187Z,102929.44
2023-04-02T05:38:22.752Z,102922.28
2023-04-02T05:39:27.260Z,102922.19
2023-04-02T05:40:40.115Z,102918.59
2023-04-02T05:41:47.576Z,102929.09
2023-04-02T05:43:03.796Z,102920.94
2023-04-02T05:44:27.695Z,102925.25
2023-04-02T05:45:39.642Z,102933.16
2023-04-02T05:46:58.131Z,102926.88
2023-04-02T05:48:07.482Z,102939.44
2023-04-02T05:49:31.997Z,102936.59
2023-04-02T05:50:40.421Z,102940.16
2023-04-02T05:51:52.160Z,102934.97
2023-04-02T05:53:02.235Z,102943.78
2023-04-02T05:54:06.763Z,102946.50
2023-04-02T05:55:17.157Z,102953.56
2023-04-02T05:56:32.096Z,102954.34
2023-04-02T05:57:49.526Z,102942.22
2023-04-02T05:59:11.599Z,102952.28
2023-04-02T06:00:39.765Z,102955.66
2023-04-02T06:02:04.444Z,102959.13
2023-04-02T06:03:38.962Z,102958.06
2023-04-02T06:05:02.180Z,102966.88
2023-04-02T06:06:15.637Z,102962.63
2023-04-02T06:07:28.538Z,102973.31
2023-04-02T06:08:50.375Z,102973.31
2023-04-02T06:10:17.874Z,102973.94
2023-04-02T06:11:28.761Z,102974.91
2023-04-02T06:12:46.091Z,102974.72
2023-04-02T06:13:48.462Z,102967.97
2023-04-02T06:14:51.190Z,102982.81
2023-04-02T06:15:53.348Z,102983.69
2023-04-02T06:17:00.220Z,102981.69
2023-04-02T06:18:24.953Z,102984.13
2023-04-02T06:19:33.002Z,102989.31
2023-04-02T06:20:35.209Z,102989.06
2023-04-02T06:21:45.124Z,102991.66
2023-04-02T06:22:55.756Z,102987.88
2023-04-02T06:24:03.537Z,102997.44
2023-04-02T06:25:24.191Z,102999.88
2023-04-02T06:26:35.311Z,102993.25
2023-04-02T06:27:40.137Z,103003.78
2023-04-02T06:28:56.625Z,102998.34
2023-04-02T06:30:05.701Z,103005.09
2023-04-02T06:31:30.707Z,103001.13
2023-04-02T06:32:33.190Z,102998.28
2023-04-02T06:33:35.580Z,103005.34
2023-04-02T06:34:39.860Z,103004.41
2023-04-02T06:35:47.559Z,103005.09
2023-04-02T06:37:02.572Z,102992.00
2023-04-02T06:38:12.356Z,102997.69
2023-04-02T06:39:26.157Z,103005.97
2023-04-02T06:40:32.209Z,103009.41
2023-04-02T06:41:37.687Z,103007.31
2023-04-02T06:42:59.763Z,103000.00
2023-04-02T06:44:21.179Z,103007.69
2023-04-02T06:45:42.194Z,103000.31
2023-04-02T06:47:44.572Z,103006.59
2023-04-02T06:48:59.404Z,103004.88
2023-04-02T06:50:15.142Z,103008.50
2023-04-02T06:51:21.180Z,102961.03
2023-04-02T06:52:58.042Z,103005.50
2023-04-02T06:54:00.639Z,103015.06
2023-04-02T06:55:26.289Z,103010.97
2023-04-02T06:56:52.015Z,103010.34
2023-04-02T06:58:03.906Z,103008.53
2023-04-02T06:59:07.548Z,103011.31
2023-04-02T07:00:26.060Z,103010.41
2023-04-02T07:01:30.877Z,103008.00
2023-04-02T07:02:39.926Z,103007.66
2023-04-02T07:03:44.801Z,103019.91
2023-04-02T07:05:02.170Z,103020.75
2023-04-02T07:06:05.418Z,103010.00
2023-04-02T07:07:09.186Z,103023.38
2023-04-02T07:08:14.010Z,103025.94
2023-04-02T07:09:15.965Z,103015.59
2023-04-02T07:10:21.885Z,103019.91
2023-04-02T07:11:23.893Z,103026.69
2023-04-02T07:12:28.887Z,103027.59
2023-04-02T07:13:30.896Z,103038.16
2023-04-02T07:14:32.756Z,103030.16
2023-04-02T07:15:35.063Z,103023.38
2023-04-02T07:16:37.396Z,103040.78
2023-04-02T07:17:39.932Z,103036.28
2023-04-02T07:18:42.570Z,103041.63
2023-04-02T07:19:45.800Z,103030.25
2023-04-02T07:20:47.803Z,103043.25
2023-04-02T07:21:50.684Z,103038.94
2023-04-02T07:22:54.596Z,103041.44
2023-04-02T07:23:56.663Z,103045.75
2023-04-02T07:24:58.820Z,103054.75
2023-04-02T07:26:02.412Z,103053.78
2023-04-02T07:27:04.268Z,103049.38
2023-04-02T07:28:06.380Z,103055.50
2023-04-02T07:29:13.646Z,103048.38
2023-04-02T07:30:15.958Z,103038.28
2023-04-02T07:31:19.229Z,103054.56
2023-04-02T07:32:21.137Z,103064.31
2023-04-02T07:33:26.880Z,103065.25
2023-04-02T07:34:28.733Z,103069.66
2023-04-02T07:35:30.598Z,103068.72
2023-04-02T07:36:32.477Z,103069.66
2023-04-02T07:37:34.321Z,103073.22
2023-04-02T07:38:36.298Z,103074.06
2023-04-02T07:39:40.118Z,103077.69
2023-04-02T07:40:42.576Z,103079.41
2023-04-02T07:41:52.615Z,103075.88
2023-04-02T07:42:54.385Z,103075.78
2023-04-02T07:43:56.304Z,103078.47
2023-04-02T07:44:58.164Z,103069.84
2023-04-02T07:46:00.196Z,103066.66
2023-04-02T07:47:02.114Z,103082.09
2023-04-02T07:48:08.554Z,103088.41
2023-04-02T07:49:10.493Z,103091.00
2023-04-02T07:50:12.337Z,103091.84
2023-04-02T07:51:26.660Z,103087.38
2023-04-02T07:52:28.536Z,103095.28
2023-04-02T07:53:38.734Z,103104.25
2023-04-02T07:54:40.506Z,103097.00
2023-04-02T07:55:42.742Z,103108.78
2023-04-02T07:56:44.719Z,103097.19
2023-04-02T07:57:55.816Z,103109.63
2023-04-02T07:58:57.750Z,103106.00
2023-04-02T07:59:59.525Z,103109.63
2023-04-02T08:01:01.870Z,103109.63
2023-04-02T08:02:04.512Z,103102.72
2023-04-02T08:03:07.073Z,103118.41
2023-04-02T08:04:17.391Z,103109.53
2023-04-02T08:05:19.432Z,103092.97
2023-04-02T08:06:22.072Z,103115.66
2023-04-02T08:07:23.974Z,103122.75
2023-04-02T08:08:26.334Z,103117.56
2023-04-02T08:09:28.105Z,103115.56
2023-04-02T08:10:29.939Z,103119.97
2023-04-02T08:11:32.202Z,103112.88
2023-04-02T08:12:33.994Z,103104.69
2023-04-02T08:13:36.525Z,103107.72
2023-04-02T08:14:38.460Z,103119.78
2023-04-02T08:15:40.426Z,103121.50
2023-04-02T08:16:53.948Z,103115.97
2023-04-02T08:17:55.925Z,103119.41
2023-04-02T08:18:57.705Z,103119.34
2023-04-02T08:20:01.259Z,103127.38
2023-04-02T08:21:05.455Z,103123.75
2023-04-02T08:22:07.321Z,103122.91
2023-04-02T08:23:18.012Z,103122.72
2023-04-02T08:24:20.471Z,103111.50
2023-04-02T08:25:22.318Z,103133.25
2023-04-02T08:26:24.124Z,103133.25
2023-04-02T08:27:26.438Z,103127.78
2023-04-02T08:28:28.330Z,103121.59
2023-04-02T08:29:32.334Z,103112.34
2023-04-02T08:30:34.937Z,103126.75
2023-04-02T08:31:36.840Z,103120.81
2023-04-02T08:32:41.159Z,103131.16
2023-04-02T08:33:43.162Z,103136.41
2023-04-02T08:34:45.597Z,103133.72
2023-04-02T08:35:48.807Z,103131.94
2023-04-02T08:36:51.225Z,103135.38
2023-04-02T08:37:52.975Z,103139.00
2023-04-02T08:38:54.827Z,103137.47
2023-04-02T08:39:56.705Z,103140.72
2023-04-02T08:41:02.777Z,103134.50
2023-04-02T08:42:16.580Z,103137.88
2023-04-02T08:43:40.975Z,103134.06
2023-04-02T08:45:25.348Z,103143.56
2023-04-02T08:46:59.991Z,103143.09
2023-04-02T08:48:03.559Z,103144.16
2023-04-02T08:49:13.990Z,103148.91
2023-04-02T08:50:36.017Z,103144.31
2023-04-02T08:51:38.207Z,103148.91
2023-04-02T08:52:40.147Z,103148.22
2023-04-02T08:53:42.234Z,103152.81
2023-04-02T08:54:44.085Z,103151.97
2023-04-02T08:55:59.936Z,103152.03
2023-04-02T08:57:11.700Z,103151.84
2023-04-02T08:58:44.567Z,103157.59
2023-04-02T08:59:47.968Z,103155.03
2023-04-02T09:00:54.381Z,103157.03
2023-04-02T09:02:24.036Z,103161.34
2023-04-02T09:03:42.905Z,103159.44
2023-04-02T09:04:45.092Z,103154.09
2023-04-02T09:05:49.846Z,103162.38
2023-04-02T09:06:55.426Z,103159.88
2023-04-02T09:08:02.122Z,103162.56
2023-04-02T09:09:05.172Z,103157.19
2023-04-02T09:10:07.346Z,103160.84
2023-04-02T09:11:22.741Z,103160.00
2023-04-02T09:12:28.867Z,103158.94
2023-04-02T09:13:33.308Z,103165.16
2023-04-02T09:14:59.801Z,103164.28
2023-04-02T09:16:06.267Z,103171.19
2023-04-02T09:17:20.325Z,103166.72
2023-04-02T09:18:22.226Z,103174.81
2023-04-02T09:19:36.663Z,103170.41
2023-04-02T09:20:39.329Z,103163.44
2023-04-02T09:21:45.926Z,103179.56
2023-04-02T09:22:51.128Z,103183.97
2023-04-02T09:23:52.894Z,103176.91
2023-04-02T09:24:59.801Z,103175.19
2023-04-02T09:26:04.433Z,103180.53
2023-04-02T09:27:21.275Z,103176.06
2023-04-02T09:28:26.452Z,103179.50
2023-04-02T09:29:42.903Z,103179.56
2023-04-02T09:31:00.990Z,103185.63
2023-04-02T09:32:12.805Z,103183.91
2023-04-02T09:33:14.623Z,103191.06
2023-04-02T09:34:36.179Z,103194.69
2023-04-02T09:35:55.678Z,103190.88
2023-04-02T09:37:07.465Z,103192.78
2023-04-02T09:38:20.657Z,103201.78
2023-04-02T09:39:26.361Z,103192.97
2023-04-02T09:40:32.344Z,103193.91
2023-04-02T09:41:37.099Z,103191.41
2023-04-02T09:42:39.091Z,103195.81
2023-04-02T09:43:42.193Z,103194.19
2023-04-02T09:44:43.987Z,103196.06
2023-04-02T09:46:00.153Z,103196.06
2023-04-02T09:47:05.834Z,103187.97
2023-04-02T09:48:30.939Z,103196.66
2023-04-02T09:49:35.611Z,103187.78
2023-04-02T09:50:37.770Z,103190.06
2023-04-02T09:51:39.628Z,103202.31
2023-04-02T09:52:41.589Z,103205.94
2023-04-02T09:53:49.444Z,103197.31
2023-04-02T09:55:19.220Z,103198.69
2023-04-02T09:56:27.044Z,103204.88
2023-04-02T09:57:29.682Z,103205.00
2023-04-02T09:58:31.776Z,103201.53
2023-04-02T09:59:33.645Z,103211.47
2023-04-02T10:00:35.658Z,103211.53
2023-04-02T10:02:00.825Z,103211.66
2023-04-02T10:03:21.657Z,103216.66
2023-04-02T10:04:47.689Z,103216.38
2023-04-02T10:06:14.257Z,103212.72
2023-04-02T10:07:38.722Z,103201.53
2023-04-02T10:08:45.603Z,103218.19
2023-04-02T10:09:58.092Z,103218.38
2023-04-02T10:11:03.529Z,103214.03
2023-04-02T10:12:11.667Z,103210.69
2023-04-02T10:13:35.765Z,103218.38
2023-04-02T10:14:43.415Z,103220.28
2023-04-02T10:16:01.058Z,103210.53
2023-04-02T10:17:23.287Z,103214.75
2023-04-02T10:18:38.950Z,103214.03
2023-04-02T10:19:45.983Z,103220.28
2023-04-02T10:20:51.415Z,103215.09
2023-04-02T10:21:55.731Z,103217.78
2023-04-02T10:22:57.548Z,103217.84
2023-04-02T10:23:59.784Z,103224.25
2023-04-02T10:25:01.615Z,103211.38
2023-04-02T10:26:43.404Z,103225.81
2023-04-02T10:28:38.556Z,103224.41
2023-04-02T10:30:09.509Z,103227.78
2023-04-02T10:31:25.580Z,103227.00
2023-04-02T10:32:51.375Z,103226.06
2023-04-02T10:34:02.753Z,103218.28
2023-04-02T10:35:12.214Z,103226.31
2023-04-02T10:36:40.202Z,103232.34
2023-04-02T10:38:04.133Z,103230.63
2023-04-02T10:39:12.069Z,103236.00
2023-04-02T10:40:17.043Z,103245.03
2023-04-02T10:41:41.449Z,103238.91
2023-04-02T10:43:07.925Z,103240.56
2023-04-02T10:44:32.424Z,103237.53
2023-04-02T10:45:52.883Z,103242.88
2023-04-02T10:47:16.309Z,103241.34
2023-04-02T10:48:18.137Z,103243.94
2023-04-02T10:49:44.820Z,103240.56
2023-04-02T10:51:30.828Z,103248.06
2023-04-02T10:53:06.255Z,103237.34
2023-04-02T10:54:32.197Z,103248.06
2023-04-02T10:55:42.585Z,103239.63
2023-04-02T10:56:51.004Z,103252.81
2023-04-02T10:57:56.634Z,103251.09
2023-04-02T10:59:05.871Z,103261.03
2023-04-02T11:00:10.829Z,103252.13
2023-04-02T11:01:19.816Z,103245.94
2023-04-02T11:02:36.536Z,103252.06
2023-04-02T11:03:44.965Z,103268.13
2023-04-02T11:04:47.257Z,103255.75
2023-04-02T11:05:57.563Z,103242.66
2023-04-02T11:07:17.278Z,103260.88
2023-04-02T11:08:42.155Z,103267.00
2023-04-02T11:09:47.463Z,103260.69
2023-04-02T11:10:56.734Z,103215.78
2023-04-02T11:12:01.109Z,103254.56
2023-04-02T11:13:30.353Z,103256.22
2023-04-02T11:14:32.961Z,103267.75
2023-04-02T11:15:36.400Z,103270.63
2023-04-02T11:16:42.684Z,103270.72
2023-04-02T11:17:47.212Z,103269.84
2023-04-02T11:19:08.781Z,103275.03
2023-04-02T11:20:49.093Z,103273.03
2023-04-02T11:21:58.664Z,103268.47
2023-04-02T11:23:17.456Z,103272.28
2023-04-02T11:24:34.264Z,103278.47
2023-04-02T11:25:36.498Z,103259.19
2023-04-02T11:26:44.745Z,103277.81
2023-04-02T11:27:46.889Z,103279.59
2023-04-02T11:28:48.780Z,103279.69
2023-04-02T11:30:20.022Z,103279.97
2023-04-02T11:31:22.088Z,103279.34
2023-04-02T11:32:24.334Z,103280.47
2023-04-02T11:33:44.293Z,103281.44
2023-04-02T11:34:56.360Z,103281.25
2023-04-02T11:36:02.388Z,103290.13
2023-04-02T11:37:09.361Z,103284.13
2023-04-02T11:38:11.376Z,103293.00
2023-04-02T11:39:17.517Z,103271.16
2023-04-02T11:40:39.810Z,103292.16
2023-04-02T11:42:05.016Z,103297.16
2023-04-02T11:43:34.588Z,103304.06
2023-04-02T11:44:36.535Z,103299.72
2023-04-02T11:45:52.990Z,103303.53
2023-04-02T11:47:16.270Z,103298.00
2023-04-02T11:48:18.256Z,103306.97
2023-04-02T11:49:40.929Z,103303.34
2023-04-02T11:50:44.894Z,103299.31
2023-04-02T11:51:52.273Z,103310.78
2023-04-02T11:53:19.679Z,103305.44
2023-04-02T11:54:28.227Z,103306.31
2023-04-02T11:55:31.640Z,103316.13
2023-04-02T11:56:54.527Z,103312.50
2023-04-02T11:58:02.318Z,103307.16
2023-04-02T11:59:11.316Z,103309.94
2023-04-02T12:00:30.976Z,103304.66
2023-04-02T12:02:06.770Z,103315.13
2023-04-02T12:03:42.219Z,103314.84
2023-04-02T12:04:53.054Z,103315.78
2023-04-02T12:06:08.338Z,103309.75
2023-04-02T12:07:12.979Z,103317.88
2023-04-02T12:08:57.139Z,103322.19
2023-04-02T12:10:02.900Z,103331.97
2023-04-02T12:11:05.488Z,103312.16
2023-04-02T12:12:37.988Z,103320.66
2023-04-02T12:13:39.809Z,103323.22
2023-04-02T12:14:51.822Z,103313.22
2023-04-02T12:15:58.428Z,103326.25
2023-04-02T12:17:00.520Z,103319.34
2023-04-02T12:18:22.277Z,103326.31
2023-04-02T12:19:25.920Z,103317.63
2023-04-02T12:20:30.771Z,103320.13
2023-04-02T12:21:32.580Z,103329.94
2023-04-02T12:22:47.383Z,103309.22
2023-04-02T12:23:51.868Z,103324.59
2023-04-02T12:25:07.661Z,103306.53
2023-04-02T12:26:46.443Z,103331.50
2023-04-02T12:27:48.634Z,103333.94
2023-04-02T12:28:50.481Z,103332.38
2023-04-02T12:29:52.478Z,103328.03
2023-04-02T12:31:04.979Z,103322.25
2023-04-02T12:32:20.112Z,103333.34
2023-04-02T12:33:37.495Z,103332.38
2023-04-02T12:34:46.498Z,103338.50
2023-04-02T12:35:53.334Z,103318.91
2023-04-02T12:36:59.660Z,103332.72
2023-04-02T12:38:02.220Z,103331.44
2023-04-02T12:39:04.103Z,103335.13
2023-04-02T12:40:17.731Z,103320.28
2023-04-02T12:41:33.318Z,103335.84
2023-04-02T12:42:37.238Z,103331.44
2023-04-02T12:43:40.161Z,103330.31
2023-04-02T12:44:49.263Z,103325.91
2023-04-02T12:45:53.472Z,103332.91
2023-04-02T12:46:57.203Z,103332.22
2023-04-02T12:48:03.143Z,103330.25
2023-04-02T12:49:08.494Z,103315.53
2023-04-02T12:50:15.499Z,103335.41
2023-04-02T12:51:17.647Z,103322.19
2023-04-02T12:52:22.740Z,103331.84
2023-04-02T12:53:29.557Z,103337.91
2023-04-02T12:54:37.504Z,103322.03
2023-04-02T12:55:39.445Z,103332.47
2023-04-02T12:56:41.362Z,103343.00
2023-04-02T12:57:46.028Z,103345.69
2023-04-02T12:59:01.434Z,103342.94
2023-04-02T13:00:21.738Z,103340.81
2023-04-02T13:01:29.584Z,103347.13
2023-04-02T13:02:42.702Z,103341.75
2023-04-02T13:04:09.067Z,103339.69
2023-04-02T13:05:11.508Z,103343.13
2023-04-02T13:06:24.510Z,103344.16
2023-04-02T13:07:29.588Z,103345.03
2023-04-02T13:08:40.603Z,103341.75
2023-04-02T13:09:49.098Z,103339.09
2023-04-02T13:10:56.796Z,103347.63
2023-04-02T13:11:59.123Z,103327.41
2023-04-02T13:13:03.368Z,103340.53
2023-04-02T13:14:08.075Z,103344.88
2023-04-02T13:15:28.895Z,103344.69
2023-04-02T13:16:38.448Z,103348.22
2023-04-02T13:17:47.937Z,103348.13
2023-04-02T13:18:50.272Z,103344.59
2023-04-02T13:19:52.085Z,103346.41
2023-04-02T13:20:59.357Z,103347.53
2023-04-02T13:22:03.100Z,103357.03
2023-04-02T13:23:25.195Z,103353.22
2023-04-02T13:24:29.861Z,103358.56
2023-04-02T13:25:36.320Z,103361.44
2023-04-02T13:26:38.181Z,103355.91
2023-04-02T13:27:40.023Z,103352.38
2023-04-02T13:28:42.020Z,103351.66